Aeroporto :
LOGIN :

Iscrizione | Disclaimer

   EN    FR    IT 

 










Sommario :    VFR   VFR Marginale   IFR   IFR Intensivo   IFR Molto Intensivo
Visibilità : 
Base nubi : 
>= 8 km
>= 3000ft
5 / 8 km
1000 / 3000 ft
1500m / 5 km
500 / 1000 ft
800 / 1500m
200 / 500 ft
< 800m
< 200 ft
Simboli :   Temporali  Nebbia  Neve Forte  Precipitazioni Forti  Vento > 20 kt
SIGMETs :   Varie  Temporali  Ghiacco  Turbolenza  Onda orograficha  Ceneri Vulcaniche






- Altitudine del aeroporto : 69 ft
- Codice IATA : AES


ENAL - Ålesund

ULTIMO METAR :
  • 231150Z 22016KT 9999 BKN036 13/08 Q1003

METARs OBSOLETI :
  • 231120Z 22020KT 9999 -DZ BKN036 12/08 Q1003
  • 231050Z 22022KT 9999 BKN034 12/08 Q1003
  • 231020Z 22022KT 9999 BKN035 12/08 Q1003
  • 230950Z 20012KT 9999 VCSH BKN029 12/08 Q1003
  • 230920Z 19013KT 9999 -RA FEW015 SCT035 BKN051 12/08 Q1003

TAF TAF ENAL
Valido dal 23 a 12 ore il 23 a 21 ore UTC


231100Z 2312/2321 20018KT 9999 -RA SCT010 BKN030
TEMPO 2312/2316 20025G35KT



MetMap, La meteo Aeronautica in un colpo d'occhio ! - Copyright ORBIFLY Dicembre 2007 - Disclaimer

ORBIFLY MET'MAP TEAM :

Programmazione e sviluppo : Alexandra Zaïnal
Concezione e sviluppo : Baudouin d'Aumeries
Co-Programmazione e sviluppo : Marc-Olivier Méhu
Supporto tecnico e logistico : Manuel Goepfert
Aiuto per la traduzione : Arnaldo La Scala

Contatto : metmap@orbifly.com




FONTI E CREDITI :

   NOAA